Demossville, Kentucky
Current Conditions -  °F | °C
As of 6:53 AM on Sunday 25 Jan 2015 (Local Time) from KLUK Reporting Station
Haze Haze  
Wind Chill: 31°   Ceiling: 11000
Heat Index: 31°   Visibility: 6mi
Dew Point: 30°   Wind: 3mph
Humidity: 96%   Direction: 220°SW
Pressure: 29.75"   Gusts: NA
Location:  38.8043°N, 84.4185°W
Report Text: KLUK 251153Z 22003KT 6SM BR BKN110 M01/M01 A2975 RMK AO2 SLP078 T10061011 10000 21033 56011
Loading
Personal Weather Stations






























Interactive Weather Map New forecast layout! Learn more

10-Day Weather Forecast

Advertisements
Track Severe Weather on mobile